Time;durP1;ratioP1;P1;durP2;ratioP2;P2;SDS_P1;SDS_P2;PMS_P1;PMS_P2;Temp;Humidity;BMP_temperature;BMP_pressure;BME280_temperature;BME280_humidity;BME280_pressure;Samples;Min_cycle;Max_cycle;Signal;HPM_P1;HPM_P2
2022/04/03 00:02:11;;;;;;;4.45;2.50;;;;;;;-1.73;66.13;102231.16;5092995;28;20047;-66
2022/04/03 00:04:38;;;;;;;5.50;2.13;;;;;;;-1.75;66.33;102231.91;5092838;28;20102;-66
2022/04/03 00:07:05;;;;;;;6.63;2.33;;;;;;;-1.77;66.27;102228.38;5091592;28;20101;-66
2022/04/03 00:09:33;;;;;;;4.28;2.13;;;;;;;-1.79;66.60;102232.63;5090441;28;20044;-66
2022/04/03 00:12:02;;;;;;;4.50;2.70;;;;;;;-1.83;66.72;102223.81;5093166;28;20353;-65
2022/04/03 00:14:29;;;;;;;5.97;2.75;;;;;;;-1.85;66.95;102227.16;5092503;28;20046;-66
2022/04/03 00:16:57;;;;;;;5.50;2.22;;;;;;;-1.90;66.97;102232.16;5092319;28;20041;-67
2022/04/03 00:19:24;;;;;;;6.13;2.60;;;;;;;-1.91;67.24;102225.19;5090420;28;20049;-66
2022/04/03 00:21:51;;;;;;;4.10;2.17;;;;;;;-1.93;67.23;102221.66;5092538;28;20036;-66
2022/04/03 00:24:18;;;;;;;3.83;2.30;;;;;;;-1.97;67.44;102232.72;5090451;28;20056;-67
2022/04/03 00:26:45;;;;;;;4.80;2.25;;;;;;;-2.03;67.36;102223.84;5091639;28;20040;-66
2022/04/03 00:29:12;;;;;;;8.38;2.38;;;;;;;-147.05;100.00;58721.66;5098133;28;20767;-66
2022/04/03 00:31:39;;;;;;;5.30;2.60;;;;;;;-147.05;100.00;58721.66;5092144;28;20040;-66
2022/04/03 00:34:07;;;;;;;4.80;2.30;;;;;;;-147.05;100.00;58721.66;5092843;28;20037;-66
2022/04/03 00:36:34;;;;;;;3.72;2.30;;;;;;;-147.05;100.00;58721.66;5091957;28;20045;-67
2022/04/03 00:39:01;;;;;;;5.70;2.67;;;;;;;-147.05;100.00;58721.66;5092425;28;20116;-66
2022/04/03 00:41:32;;;;;;;3.38;2.25;;;;;;;-147.05;100.00;58721.66;5091275;28;20056;-67
2022/04/03 00:43:59;;;;;;;5.28;2.38;;;;;;;191.58;100.00;58721.66;5089756;28;20037;-65
2022/04/03 00:46:27;;;;;;;4.60;2.00;;;;;;;191.58;100.00;58721.66;5091959;28;20527;-65
2022/04/03 00:48:59;;;;;;;4.35;2.08;;;;;;;-2.01;100.00;58721.66;5092085;28;20052;-65
2022/04/03 00:51:28;;;;;;;5.15;2.15;;;;;;;-147.05;100.00;58721.66;5088200;28;20044;-65
2022/04/03 00:53:55;;;;;;;4.32;2.33;;;;;;;-147.05;100.00;58721.66;5091095;28;20040;-66
2022/04/03 00:56:22;;;;;;;4.63;2.63;;;;;;;-147.05;100.00;58721.66;5092089;28;20537;-65
2022/04/03 00:58:50;;;;;;;4.75;2.17;;;;;;;-147.05;100.00;58721.66;5091001;28;20037;-66
2022/04/03 01:01:19;;;;;;;4.40;2.40;;;;;;;-147.05;100.00;58721.66;5088560;28;20063;-65
2022/04/03 01:03:48;;;;;;;4.35;1.90;;;;;;;-147.05;100.00;58721.66;5085475;28;20123;-65
2022/04/03 01:06:16;;;;;;;5.80;2.30;;;;;;;-147.05;100.00;58721.66;5088476;28;20047;-64
2022/04/03 01:08:43;;;;;;;6.00;2.63;;;;;;;-147.05;100.00;58721.66;5090488;28;20126;-65
2022/04/03 01:11:13;;;;;;;4.47;2.33;;;;;;;-2.69;100.00;58721.66;5087208;28;20490;-64
2022/04/03 01:13:46;;;;;;;5.07;2.47;;;;;;;-2.82;100.00;58721.66;5089341;28;20091;-64
2022/04/03 01:16:16;;;;;;;5.88;2.75;;;;;;;-147.05;100.00;58721.66;5090497;28;20041;-65
2022/04/03 01:18:44;;;;;;;5.63;2.50;;;;;;;-147.05;100.00;58721.66;5089757;28;20040;-64
2022/04/03 01:21:12;;;;;;;6.43;2.95;;;;;;;-147.05;100.00;58721.66;5090834;28;20045;-66
2022/04/03 01:23:40;;;;;;;3.22;2.10;;;;;;;-147.05;100.00;58721.66;5086395;28;20053;-66
2022/04/03 01:26:07;;;;;;;4.85;2.47;;;;;;;-147.05;100.00;58721.66;5085979;28;20052;-65
2022/04/03 01:28:35;;;;;;;5.65;2.47;;;;;;;-147.05;100.00;58721.66;5083727;28;20507;-66
2022/04/03 01:31:02;;;;;;;5.28;2.70;;;;;;;-147.05;100.00;58721.66;5086080;28;20052;-66
2022/04/03 01:33:30;;;;;;;6.20;2.78;;;;;;;-147.05;100.00;58721.66;5083985;28;20040;-66
2022/04/03 01:35:58;;;;;;;4.88;2.35;;;;;;;-147.05;100.00;58721.66;5087362;28;20495;-65
2022/04/03 01:38:26;;;;;;;7.88;2.30;;;;;;;-147.05;100.00;58721.66;5079374;28;20502;-65
2022/04/03 01:40:53;;;;;;;3.88;2.13;;;;;;;-3.01;100.00;58721.66;5082759;28;20512;-66
2022/04/03 01:43:20;;;;;;;6.35;2.30;;;;;;;-147.05;100.00;58721.66;5090433;28;20051;-66
2022/04/03 01:45:47;;;;;;;3.30;2.05;;;;;;;-147.05;100.00;58721.66;5086568;28;20082;-65
2022/04/03 01:48:14;;;;;;;6.90;2.08;;;;;;;-147.05;100.00;58721.66;5081922;28;20082;-65
2022/04/03 01:50:42;;;;;;;4.15;2.30;;;;;;;-147.05;100.00;58721.66;5083369;28;20049;-64
2022/04/03 01:53:09;;;;;;;4.95;2.30;;;;;;;-147.05;100.00;58721.66;5089226;28;20040;-65
2022/04/03 01:55:36;;;;;;;5.00;2.30;;;;;;;-3.01;100.00;58721.66;5081248;28;20545;-66
2022/04/03 01:58:08;;;;;;;3.92;2.08;;;;;;;-147.05;100.00;58721.66;5090681;28;20052;-65
2022/04/03 02:00:36;;;;;;;4.88;2.33;;;;;;;-147.05;100.00;58721.66;5088261;28;20036;-65
2022/04/03 02:03:04;;;;;;;3.20;2.13;;;;;;;-147.05;100.00;58721.66;5087593;28;20103;-64
2022/04/03 02:05:31;;;;;;;3.83;2.20;;;;;;;-147.05;100.00;58721.66;5086461;28;20083;-65
2022/04/03 02:07:59;;;;;;;5.55;2.33;;;;;;;-147.05;100.00;58721.66;5085849;28;20044;-65
2022/04/03 02:10:26;;;;;;;3.90;2.20;;;;;;;-147.05;100.00;58721.66;5079224;28;20072;-65
2022/04/03 02:12:53;;;;;;;3.72;2.42;;;;;;;-147.05;100.00;58721.66;5085816;28;20047;-65
2022/04/03 02:15:20;;;;;;;6.97;2.42;;;;;;;-147.05;100.00;58721.66;5081679;28;20040;-65
2022/04/03 02:17:47;;;;;;;6.43;2.60;;;;;;;-147.05;100.00;58721.66;5087537;28;20045;-65
2022/04/03 02:20:14;;;;;;;4.47;2.50;;;;;;;-147.05;100.00;58721.66;5085580;28;20047;-65
2022/04/03 02:22:41;;;;;;;4.40;2.33;;;;;;;-147.05;100.00;58721.66;5084050;28;20072;-66
2022/04/03 02:25:11;;;;;;;7.32;2.40;;;;;;;-147.05;100.00;58721.66;5088116;28;20059;-67
2022/04/03 02:27:40;;;;;;;3.92;2.70;;;;;;;-3.00;100.00;58721.66;5086389;28;20044;-65
2022/04/03 02:30:11;;;;;;;5.05;2.97;;;;;;;-147.05;100.00;58721.66;5087911;28;20047;-65
2022/04/03 02:32:42;;;;;;;5.28;2.53;;;;;;;-147.05;100.00;58721.66;5086469;28;20056;-65
2022/04/03 02:35:14;;;;;;;6.35;3.00;;;;;;;-147.05;100.00;58721.66;5083328;28;20071;-65
2022/04/03 02:37:43;;;;;;;6.55;2.80;;;;;;;-147.05;100.00;58721.66;5086076;28;20045;-66
2022/04/03 02:40:17;;;;;;;8.38;3.28;;;;;;;-147.05;100.00;58721.66;5088432;28;20037;-66
2022/04/03 02:42:44;;;;;;;8.00;3.70;;;;;;;-147.05;100.00;58721.66;5085609;28;20135;-65
2022/04/03 02:45:15;;;;;;;6.25;3.40;;;;;;;-147.05;100.00;58721.66;5082672;28;20037;-65
2022/04/03 02:47:50;;;;;;;5.47;3.30;;;;;;;-147.05;100.00;58721.66;5083043;28;20044;-65
2022/04/03 02:50:19;;;;;;;6.03;3.13;;;;;;;-147.05;100.00;58721.66;5086972;28;20044;-65
2022/04/03 02:52:48;;;;;;;4.72;3.03;;;;;;;-2.83;100.00;58721.66;5080428;28;21036;-65
2022/04/03 02:55:17;;;;;;;5.75;3.50;;;;;;;-147.05;100.00;58721.66;5084436;28;20106;-65
2022/04/03 02:57:45;;;;;;;6.15;3.50;;;;;;;-147.05;100.00;58721.66;5086456;28;20076;-65
2022/04/03 03:00:17;;;;;;;5.65;3.47;;;;;;;-147.05;100.00;58721.66;5087871;28;20040;-66
2022/04/03 03:02:51;;;;;;;6.53;3.35;;;;;;;-147.05;100.00;58721.66;5083676;28;20168;-66
2022/04/03 03:05:19;;;;;;;5.07;3.60;;;;;;;-147.05;100.00;58721.66;5085554;28;20574;-67
2022/04/03 03:07:46;;;;;;;5.28;3.80;;;;;;;-147.05;100.00;58721.66;5088378;28;20048;-66
2022/04/03 03:10:18;;;;;;;5.90;3.45;;;;;;;-147.05;100.00;58721.66;5089216;28;20610;-66
2022/04/03 03:12:46;;;;;;;6.13;3.47;;;;;;;-147.05;100.00;58721.66;5091134;28;20037;-65
2022/04/03 03:15:15;;;;;;;8.07;3.60;;;;;;;-147.05;100.00;58721.66;5084811;28;20349;-64
2022/04/03 03:17:42;;;;;;;7.78;3.70;;;;;;;-147.05;100.00;58721.66;5084852;28;20049;-64
2022/04/03 03:20:12;;;;;;;4.70;3.28;;;;;;;-147.05;100.00;58721.66;5089979;28;20037;-67
2022/04/03 03:22:39;;;;;;;6.25;4.00;;;;;;;-147.05;100.00;58721.66;5091918;28;20086;-66
2022/04/03 03:25:08;;;;;;;5.20;3.25;;;;;;;-147.05;100.00;58721.66;5090044;28;20553;-66
2022/04/03 03:27:38;;;;;;;5.78;3.30;;;;;;;-147.05;100.00;58721.66;5089282;28;20084;-65
2022/04/03 03:30:08;;;;;;;5.45;3.10;;;;;;;-147.05;100.00;58721.66;5084296;28;20041;-65
2022/04/03 03:32:36;;;;;;;6.97;3.78;;;;;;;-147.05;100.00;58721.66;5079178;28;20045;-66
2022/04/03 03:35:05;;;;;;;8.07;3.85;;;;;;;-147.05;100.00;58721.66;5081524;28;20049;-66
2022/04/03 03:37:33;;;;;;;5.38;3.47;;;;;;;-147.05;100.00;58721.66;5083185;28;20056;-65
2022/04/03 03:40:03;;;;;;;4.75;3.40;;;;;;;-147.05;100.00;58721.66;5088836;28;20142;-65
2022/04/03 03:42:30;;;;;;;6.50;3.85;;;;;;;-147.05;100.00;58721.66;5090051;28;20126;-65
2022/04/03 03:44:58;;;;;;;6.65;3.78;;;;;;;-147.05;100.00;58721.66;5089391;28;20056;-67
2022/04/03 03:47:27;;;;;;;7.53;3.88;;;;;;;-147.05;100.00;58721.66;5079725;28;20051;-65
2022/04/03 03:49:54;;;;;;;8.50;4.28;;;;;;;-147.05;100.00;58721.66;5084873;28;20128;-65
2022/04/03 03:52:21;;;;;;;7.57;4.15;;;;;;;-147.05;100.00;58721.66;5084312;28;20040;-65
2022/04/03 03:54:50;;;;;;;6.93;3.83;;;;;;;-147.05;100.00;58721.66;5084433;28;20094;-65
2022/04/03 03:57:17;;;;;;;5.93;3.95;;;;;;;-147.05;100.00;58721.66;5087426;28;20845;-64
2022/04/03 03:59:45;;;;;;;6.35;3.72;;;;;;;-147.05;100.00;58721.66;5086126;28;20744;-65
2022/04/03 04:02:13;;;;;;;6.93;3.85;;;;;;;-147.05;100.00;58721.66;5084408;28;20094;-65
2022/04/03 04:04:40;;;;;;;7.80;4.35;;;;;;;-147.05;100.00;58721.66;5085814;28;20052;-65
2022/04/03 04:07:08;;;;;;;5.60;3.97;;;;;;;-147.05;100.00;58721.66;5088842;28;20047;-67
2022/04/03 04:09:36;;;;;;;8.45;4.05;;;;;;;-147.05;100.00;58721.66;5084717;28;20479;-67
2022/04/03 04:12:05;;;;;;;6.35;4.13;;;;;;;-147.05;100.00;58721.66;5090468;28;20044;-66
2022/04/03 04:14:32;;;;;;;7.05;4.35;;;;;;;-147.05;100.00;58721.66;5089738;28;20041;-65
2022/04/03 04:16:59;;;;;;;5.55;3.85;;;;;;;-147.05;100.00;58721.66;5083378;28;20146;-65
2022/04/03 04:19:27;;;;;;;6.40;4.25;;;;;;;-147.05;100.00;58721.66;5086091;28;20048;-65
2022/04/03 04:21:54;;;;;;;7.72;4.18;;;;;;;-147.05;100.00;58721.66;5083360;28;20036;-64
2022/04/03 04:24:21;;;;;;;8.05;4.35;;;;;;;-147.05;100.00;58721.66;5082536;28;20129;-65
2022/04/03 04:26:48;;;;;;;6.93;4.07;;;;;;;-147.05;100.00;58721.66;5081563;28;20095;-65
2022/04/03 04:29:15;;;;;;;9.02;4.10;;;;;;;-147.05;100.00;58721.66;5086150;28;20041;-65
2022/04/03 04:31:42;;;;;;;9.13;4.43;;;;;;;-147.05;100.00;58721.66;5089249;28;20071;-64
2022/04/03 04:34:09;;;;;;;6.75;4.10;;;;;;;-147.05;100.00;58721.66;5089284;28;20476;-65
2022/04/03 04:36:36;;;;;;;5.82;4.03;;;;;;;-147.05;100.00;58721.66;5083085;28;20552;-67
2022/04/03 04:39:04;;;;;;;6.53;4.15;;;;;;;-147.05;100.00;58721.66;5089205;28;20517;-68
2022/04/03 04:41:31;;;;;;;10.35;4.70;;;;;;;-147.05;100.00;58721.66;5090368;28;20037;-67
2022/04/03 04:43:58;;;;;;;8.63;4.50;;;;;;;-147.05;100.00;58721.66;5076571;28;20037;-66
2022/04/03 04:46:25;;;;;;;6.63;4.38;;;;;;;-147.05;100.00;58721.66;5085904;28;20077;-67
2022/04/03 04:48:52;;;;;;;7.60;4.63;;;;;;;-147.05;100.00;58721.66;5088262;28;20040;-65
2022/04/03 04:51:19;;;;;;;9.65;4.18;;;;;;;-4.16;100.00;58721.66;5090176;28;20464;-65
2022/04/03 04:53:46;;;;;;;8.00;4.13;;;;;;;-147.05;100.00;58721.66;5081915;28;20096;-64
2022/04/03 04:56:13;;;;;;;7.30;3.83;;;;;;;-147.05;100.00;58721.66;5089088;28;20044;-65
2022/04/03 04:58:41;;;;;;;6.53;4.25;;;;;;;-147.05;100.00;58721.66;5075526;28;20041;-66
2022/04/03 05:01:08;;;;;;;7.50;3.78;;;;;;;-147.05;100.00;58721.66;5089400;28;20041;-65
2022/04/03 05:03:35;;;;;;;7.45;4.32;;;;;;;-147.05;100.00;58721.66;5088971;28;20099;-66
2022/04/03 05:06:03;;;;;;;11.55;4.57;;;;;;;-147.05;100.00;58721.66;5088981;28;20508;-67
2022/04/03 05:08:33;;;;;;;7.30;4.15;;;;;;;-3.22;100.00;58721.66;5090722;28;20072;-65
2022/04/03 05:11:01;;;;;;;6.47;4.13;;;;;;;-147.05;100.00;58721.66;5085915;28;20045;-65
2022/04/03 05:13:29;;;;;;;7.55;4.18;;;;;;;-147.05;100.00;58721.66;5087771;28;20036;-67
2022/04/03 05:15:56;;;;;;;8.50;4.78;;;;;;;-147.05;100.00;58721.66;5087547;28;20729;-67
2022/04/03 05:18:23;;;;;;;10.07;4.82;;;;;;;-147.05;100.00;58721.66;5089491;28;20048;-66
2022/04/03 05:20:51;;;;;;;7.32;5.45;;;;;;;-147.05;100.00;58721.66;5082339;28;20516;-66
2022/04/03 05:23:18;;;;;;;8.75;5.47;;;;;;;-147.05;100.00;58721.66;5083611;28;20057;-66
2022/04/03 05:25:45;;;;;;;12.43;5.55;;;;;;;-2.67;100.00;58721.66;5082658;28;20040;-67
2022/04/03 05:28:13;;;;;;;7.63;4.55;;;;;;;-2.50;100.00;58721.66;5086364;28;20036;-66
2022/04/03 05:30:40;;;;;;;7.40;4.50;;;;;;;-2.34;79.56;102271.56;5083668;28;20047;-66
2022/04/03 05:33:08;;;;;;;8.57;4.50;;;;;;;-2.21;79.23;102272.13;5084437;28;20663;-66
2022/04/03 05:35:35;;;;;;;7.30;4.60;;;;;;;-2.09;78.76;102267.53;5085122;28;20033;-64
2022/04/03 05:38:02;;;;;;;9.50;4.82;;;;;;;-1.98;78.50;102264.53;5082095;28;20041;-64
2022/04/03 05:40:29;;;;;;;8.00;4.63;;;;;;;-1.84;78.30;102270.31;5080738;28;20536;-66
2022/04/03 05:42:56;;;;;;;8.90;4.60;;;;;;;-1.69;77.77;102273.56;5083281;28;20044;-66
2022/04/03 05:45:24;;;;;;;7.22;4.65;;;;;;;-1.51;77.63;102272.59;5084964;28;20759;-66
2022/04/03 05:47:53;;;;;;;6.82;4.43;;;;;;;-1.39;77.51;102275.69;5086893;28;20049;-66
2022/04/03 05:50:20;;;;;;;9.00;4.40;;;;;;;-1.24;77.21;102280.63;5088678;28;20044;-66
2022/04/03 05:52:50;;;;;;;9.30;4.45;;;;;;;-1.13;76.85;102276.78;5084235;28;20071;-66
2022/04/03 05:55:21;;;;;;;10.27;4.32;;;;;;;-0.99;76.41;102279.03;5086823;28;20064;-67
2022/04/03 05:57:51;;;;;;;8.50;4.53;;;;;;;-0.86;76.11;102280.41;5083470;28;20823;-66
2022/04/03 06:00:22;;;;;;;6.30;4.40;;;;;;;-0.77;75.61;102278.19;5081363;28;20041;-67
2022/04/03 06:03:02;;;;;;;8.13;4.30;;;;;;;-0.61;75.47;102284.84;5083760;28;20458;-66
2022/04/03 06:05:33;;;;;;;7.50;4.55;;;;;;;-0.45;74.74;102280.25;5078659;28;20041;-66
2022/04/03 06:08:02;;;;;;;6.72;4.75;;;;;;;-0.42;74.23;102277.78;5081770;28;20075;-66
2022/04/03 06:10:34;;;;;;;10.27;5.00;;;;;;;-0.35;74.50;102277.19;5082504;28;20121;-67
2022/04/03 06:13:05;;;;;;;8.82;4.70;;;;;;;-0.26;74.52;102285.31;5085804;28;20049;-67
2022/04/03 06:15:38;;;;;;;11.68;4.90;;;;;;;-0.20;74.33;102280.34;5077034;28;20033;-66
2022/04/03 06:18:08;;;;;;;8.60;4.90;;;;;;;-0.16;74.11;102289.16;5077246;28;20086;-65
2022/04/03 06:20:39;;;;;;;9.65;5.05;;;;;;;-0.13;73.94;102289.25;5085071;28;20036;-66
2022/04/03 06:23:13;;;;;;;7.35;4.82;;;;;;;-0.06;73.52;102295.53;5086646;28;20056;-67
2022/04/03 06:25:47;;;;;;;9.02;4.88;;;;;;;-0.04;73.61;102291.31;5085478;28;20045;-66
2022/04/03 06:28:14;;;;;;;8.98;5.22;;;;;;;0.02;73.82;102288.06;5085054;28;20072;-66
2022/04/03 06:30:42;;;;;;;8.18;5.20;;;;;;;0.07;73.55;102296.88;5078144;28;20513;-66
2022/04/03 06:33:17;;;;;;;10.35;5.28;;;;;;;0.10;73.50;102287.47;5084192;28;20493;-66
2022/04/03 06:35:45;;;;;;;10.32;4.72;;;;;;;0.17;73.73;102288.59;5084129;28;20045;-64
2022/04/03 06:38:14;;;;;;;9.65;5.20;;;;;;;0.21;73.24;102293.06;5084467;28;20043;-65
2022/04/03 06:40:58;;;;;;;9.38;4.70;;;;;;;0.30;73.34;102293.41;5091997;28;20044;-66
2022/04/03 06:43:30;;;;;;;11.25;5.18;;;;;;;0.41;73.47;102291.16;5092550;28;20051;-65
2022/04/03 06:45:57;;;;;;;6.88;4.78;;;;;;;0.58;73.29;102294.34;5098031;28;20792;-66
2022/04/03 06:48:28;;;;;;;9.30;4.78;;;;;;;0.79;72.93;102287.25;5098419;28;21362;-65
2022/04/03 06:50:56;;;;;;;10.70;6.57;;;;;;;0.96;72.59;102290.41;5099125;28;20045;-66
2022/04/03 06:53:23;;;;;;;8.68;5.18;;;;;;;1.12;72.42;102284.00;5097224;28;20041;-66
2022/04/03 06:55:50;;;;;;;8.75;4.85;;;;;;;1.26;72.17;102281.84;5096510;28;20052;-67
2022/04/03 06:58:17;;;;;;;8.80;5.13;;;;;;;1.41;71.78;102292.69;5091006;28;20040;-67
2022/04/03 07:00:51;;;;;;;12.02;5.22;;;;;;;1.54;71.84;102283.53;5090588;28;20574;-66
2022/04/03 07:03:19;;;;;;;5.88;4.47;;;;;;;1.67;71.33;102288.28;5078664;28;20040;-67
2022/04/03 07:05:46;;;;;;;10.00;4.80;;;;;;;1.81;71.50;102287.81;5088540;28;20035;-65
2022/04/03 07:08:14;;;;;;;7.38;4.50;;;;;;;1.96;71.21;102288.25;5084029;28;20056;-66
2022/04/03 07:10:41;;;;;;;8.15;4.80;;;;;;;2.11;70.65;102289.53;5086386;28;20609;-68
2022/04/03 07:13:08;;;;;;;6.70;4.90;;;;;;;2.22;70.50;102287.22;5086921;28;20068;-67
2022/04/03 07:15:35;;;;;;;8.52;4.43;;;;;;;2.32;69.82;102286.63;5085092;28;20072;-66
2022/04/03 07:18:03;;;;;;;8.77;4.50;;;;;;;2.35;68.92;102283.22;5089973;28;20076;-67
2022/04/03 07:20:30;;;;;;;7.93;4.38;;;;;;;2.41;69.24;102288.59;5090764;28;20040;-66
2022/04/03 07:22:57;;;;;;;7.25;4.13;;;;;;;2.47;69.36;102300.06;5082635;28;20091;-65
2022/04/03 07:25:24;;;;;;;6.28;4.05;;;;;;;2.48;67.85;102293.13;5087511;28;20795;-66
2022/04/03 07:27:51;;;;;;;9.30;4.03;;;;;;;2.37;66.98;102291.94;5082986;28;20048;-67
2022/04/03 07:30:19;;;;;;;7.05;3.55;;;;;;;2.21;67.40;102290.66;5080533;28;20037;-66
2022/04/03 07:32:46;;;;;;;10.35;3.92;;;;;;;2.05;67.42;102295.44;5083548;28;20098;-67
2022/04/03 07:35:13;;;;;;;5.93;4.10;;;;;;;1.90;67.99;102297.59;5085979;28;20037;-67
2022/04/03 07:37:40;;;;;;;6.88;4.05;;;;;;;1.75;68.33;102293.72;5089728;28;20041;-66
2022/04/03 07:40:09;;;;;;;5.63;3.92;;;;;;;1.61;68.61;102298.50;5089425;28;20466;-67
2022/04/03 07:42:39;;;;;;;11.95;4.53;;;;;;;1.49;69.07;102293.81;5089358;28;20052;-66
2022/04/03 07:45:07;;;;;;;6.80;4.43;;;;;;;1.46;69.59;102300.63;5084951;28;20041;-69
2022/04/03 07:47:34;;;;;;;6.32;4.47;;;;;;;1.66;69.54;102294.31;5085855;28;20048;-67
2022/04/03 07:50:04;;;;;;;8.13;4.72;;;;;;;1.82;68.80;102297.38;5088158;28;20049;-67
2022/04/03 07:52:32;;;;;;;10.48;4.85;;;;;;;1.97;68.90;102307.34;5086537;28;20514;-66
2022/04/03 07:55:00;;;;;;;8.70;4.78;;;;;;;2.13;68.92;102304.34;5085507;28;20048;-67
2022/04/03 07:57:28;;;;;;;9.77;4.80;;;;;;;2.29;68.93;102309.97;5089466;28;20124;-66
2022/04/03 07:59:55;;;;;;;10.55;5.05;;;;;;;2.43;68.96;102305.16;5085349;28;20722;-66
2022/04/03 08:02:22;;;;;;;9.48;5.00;;;;;;;2.63;68.71;102311.78;5077265;28;20044;-68
2022/04/03 08:04:49;;;;;;;7.00;4.65;;;;;;;2.75;68.39;102312.91;5089084;28;20095;-67
2022/04/03 08:07:16;;;;;;;8.18;4.47;;;;;;;2.83;67.92;102308.78;5084400;28;20045;-66
2022/04/03 08:09:43;;;;;;;7.85;4.70;;;;;;;3.01;68.32;102307.47;5085864;28;20041;-67
2022/04/03 08:12:11;;;;;;;8.75;4.32;;;;;;;3.19;67.28;102314.88;5083515;28;20403;-67
2022/04/03 08:14:38;;;;;;;6.15;3.72;;;;;;;3.23;66.90;102311.47;5086349;28;20071;-67
2022/04/03 08:17:05;;;;;;;7.22;3.83;;;;;;;3.43;66.80;102314.56;5084079;28;20110;-66
2022/04/03 08:19:32;;;;;;;8.02;3.88;;;;;;;3.61;66.49;102321.94;5087714;28;20107;-65
2022/04/03 08:22:03;;;;;;;8.68;3.75;;;;;;;3.75;65.39;102317.00;5088154;28;20041;-67
2022/04/03 08:24:30;;;;;;;7.30;3.42;;;;;;;3.93;64.72;102320.84;5087341;28;20140;-67
2022/04/03 08:26:57;;;;;;;5.75;3.33;;;;;;;4.09;64.51;102324.66;5084913;28;20045;-66
2022/04/03 08:29:24;;;;;;;5.72;3.58;;;;;;;4.21;64.11;102322.31;5088236;28;20131;-67
2022/04/03 08:31:51;;;;;;;7.25;3.03;;;;;;;4.31;63.10;102321.63;5083406;28;20047;-67
2022/04/03 08:34:18;;;;;;;6.35;2.85;;;;;;;4.46;62.17;102322.75;5089586;28;20415;-67
2022/04/03 08:37:06;;;;;;;6.63;3.10;;;;;;;4.56;61.61;102316.00;5080792;28;20130;-66
2022/04/03 08:39:33;;;;;;;8.10;3.58;;;;;;;4.69;62.30;102314.47;5084341;28;20044;-67
2022/04/03 08:42:00;;;;;;;5.20;3.38;;;;;;;4.87;62.92;102308.69;5077708;28;20519;-67
2022/04/03 08:44:27;;;;;;;4.15;3.17;;;;;;;5.06;63.18;102313.38;5085199;28;20564;-67
2022/04/03 08:47:00;;;;;;;5.45;2.92;;;;;;;5.25;62.66;102316.28;5081315;28;20049;-67
2022/04/03 08:49:32;;;;;;;5.50;2.40;;;;;;;5.40;61.08;102310.41;5086872;28;20159;-66
2022/04/03 08:52:01;;;;;;;3.85;2.22;;;;;;;5.51;59.24;102316.66;5091103;28;20044;-66
2022/04/03 08:54:31;;;;;;;3.58;2.10;;;;;;;5.60;58.72;102305.44;5092811;28;20585;-66
2022/04/03 08:56:58;;;;;;;4.35;2.25;;;;;;;5.66;57.90;102313.38;5077796;28;20040;-66
2022/04/03 08:59:27;;;;;;;5.40;2.22;;;;;;;5.73;57.92;102314.34;5086205;28;20084;-66
2022/04/03 09:01:54;;;;;;;5.80;2.10;;;;;;;5.86;58.68;102310.16;5090625;28;20051;-66
2022/04/03 09:04:21;;;;;;;3.53;2.30;;;;;;;5.96;57.14;102311.13;5084224;28;20414;-66
2022/04/03 09:06:57;;;;;;;5.97;2.25;;;;;;;6.04;57.62;102307.78;5084333;28;20118;-67
2022/04/03 09:09:27;;;;;;;5.80;2.10;;;;;;;6.16;56.92;102307.03;5084601;28;20045;-67
2022/04/03 09:12:11;;;;;;;4.03;1.63;;;;;;;6.29;55.22;102305.47;5090045;28;20051;-66
2022/04/03 09:14:56;;;;;;;3.75;1.63;;;;;;;6.36;53.82;102303.75;5088159;28;20040;-67
2022/04/03 09:17:45;;;;;;;;;;;;;;;6.33;54.32;102293.28;5090913;28;20047;-66
2022/04/03 09:20:15;;;;;;;2.88;1.80;;;;;;;6.49;55.12;102291.69;5083510;28;19952;-67
2022/04/03 09:22:48;;;;;;;2.70;1.60;;;;;;;6.74;56.09;102295.44;5084553;28;20494;-67
2022/04/03 09:25:30;;;;;;;3.30;1.50;;;;;;;6.68;52.80;102290.09;5089583;28;20045;-65
2022/04/03 09:28:05;;;;;;;4.65;1.60;;;;;;;6.89;51.76;102292.06;5083012;28;20098;-65
2022/04/03 09:30:45;;;;;;;2.83;1.80;;;;;;;6.97;52.62;102287.75;5083361;28;20061;-65
2022/04/03 09:33:20;;;;;;;5.38;1.70;;;;;;;7.18;52.76;102286.16;5081624;28;20037;-66
2022/04/03 09:36:01;;;;;;;4.10;1.50;;;;;;;7.49;50.63;102282.81;5078331;28;20052;-65
2022/04/03 09:38:30;;;;;;;3.13;1.30;;;;;;;7.73;49.25;102276.84;5081675;28;20703;-66
2022/04/03 09:41:00;;;;;;;3.45;1.50;;;;;;;8.12;50.01;102270.00;5081516;28;20040;-66
2022/04/03 09:43:38;;;;;;;2.67;1.20;;;;;;;8.61;47.49;102270.97;5077565;28;20121;-67
2022/04/03 09:46:12;;;;;;;2.60;1.27;;;;;;;9.25;46.60;102270.06;5086624;28;20045;-65
2022/04/03 09:48:43;;;;;;;4.88;1.30;;;;;;;9.70;46.39;102263.81;5091496;28;20094;-66
2022/04/03 09:51:19;;;;;;;2.78;1.38;;;;;;;9.82;45.72;102257.59;5082779;28;20094;-66
2022/04/03 09:54:03;;;;;;;4.07;1.00;;;;;;;9.15;43.40;102270.94;5079583;28;20987;-67
2022/04/03 09:56:34;;;;;;;1.52;0.95;;;;;;;7.97;45.48;102262.03;5083011;27;20047;-66
2022/04/03 09:59:05;;;;;;;2.67;1.10;;;;;;;7.45;46.21;102261.84;5083791;28;20054;-66
2022/04/03 10:01:42;;;;;;;2.30;1.20;;;;;;;7.15;49.04;102270.38;5082996;28;20103;-68
2022/04/03 10:04:16;;;;;;;2.17;1.00;;;;;;;6.87;49.31;102266.69;5084756;28;20036;-66
2022/04/03 10:06:43;;;;;;;5.28;1.33;;;;;;;6.72;50.07;102262.19;5084495;28;20044;-68
2022/04/03 10:09:11;;;;;;;2.47;1.13;;;;;;;6.61;50.47;102260.38;5088689;28;20468;-66
2022/04/03 10:11:43;;;;;;;3.17;1.20;;;;;;;6.92;49.25;102268.47;5081796;28;20060;-66
2022/04/03 10:14:14;;;;;;;4.10;1.20;;;;;;;7.34;49.34;102253.03;5089746;28;20537;-66
2022/04/03 10:16:41;;;;;;;2.03;1.20;;;;;;;8.00;47.98;102252.44;5074444;28;20052;-67
2022/04/03 10:19:08;;;;;;;2.75;1.10;;;;;;;8.67;47.12;102239.41;5087954;28;20064;-66
2022/04/03 10:21:48;;;;;;;2.03;1.20;;;;;;;9.19;45.27;102234.97;5081272;28;20102;-65
2022/04/03 10:24:18;;;;;;;3.38;1.20;;;;;;;9.24;45.31;102236.72;5088526;28;20500;-66
2022/04/03 10:27:04;;;;;;;1.23;0.88;;;;;;;9.24;45.92;102230.59;5079435;28;20132;-65
2022/04/03 10:29:37;;;;;;;2.15;1.30;;;;;;;9.45;44.79;102227.91;5083953;28;20045;-67
2022/04/03 10:32:06;;;;;;;1.60;1.10;;;;;;;9.41;46.52;102230.56;5091208;28;20041;-66
2022/04/03 10:34:49;;;;;;;3.35;1.10;;;;;;;9.28;44.63;102221.81;5089085;28;20502;-66
2022/04/03 10:37:43;;;;;;;2.67;0.93;;;;;;;9.08;45.29;102235.88;5078305;28;20090;-66
2022/04/03 10:40:17;;;;;;;3.45;0.80;;;;;;;8.96;43.40;102235.88;5087300;28;20052;-65
2022/04/03 10:42:58;;;;;;;2.17;0.90;;;;;;;8.62;44.61;102230.69;5082655;28;20418;-66
2022/04/03 10:45:30;;;;;;;3.88;1.10;;;;;;;8.46;45.55;102224.50;5089688;28;20130;-66
2022/04/03 10:48:19;;;;;;;1.75;0.80;;;;;;;8.28;43.76;102233.22;5087976;28;20044;-66
2022/04/03 10:51:06;;;;;;;1.73;0.68;;;;;;;7.99;43.33;102236.66;5081584;28;20041;-66
2022/04/03 10:53:36;;;;;;;2.17;0.80;;;;;;;7.84;45.33;102229.63;5086757;28;20041;-66
2022/04/03 10:56:10;;;;;;;1.60;0.90;;;;;;;8.13;45.57;102228.81;5083045;28;20041;-66
2022/04/03 10:58:45;;;;;;;3.40;0.77;;;;;;;8.44;42.87;102216.63;5085868;28;20573;-66
2022/04/03 11:01:33;;;;;;;5.40;1.17;;;;;;;8.65;43.65;102205.25;5091612;28;20561;-65
2022/04/03 11:04:08;;;;;;;2.38;0.90;;;;;;;8.67;44.20;102207.88;5091794;28;20490;-66
2022/04/03 11:06:39;;;;;;;1.65;0.82;;;;;;;8.75;45.08;102200.00;5092109;28;20037;-66
2022/04/03 11:09:21;;;;;;;2.78;0.95;;;;;;;8.90;44.77;102206.97;5092002;28;20058;-66
2022/04/03 11:11:58;;;;;;;2.08;1.00;;;;;;;8.89;43.99;102207.84;5091594;28;20498;-66
2022/04/03 11:14:51;;;;;;;4.32;1.13;;;;;;;8.74;43.72;102199.13;5091995;28;20041;-66
2022/04/03 11:17:48;;;;;;;1.17;0.75;;;;;;;8.68;44.96;102194.75;5091915;28;20116;-66
2022/04/03 11:20:40;;;;;;;3.90;0.88;;;;;;;8.34;44.75;102199.97;5076902;28;20052;-66
2022/04/03 11:23:14;;;;;;;1.73;0.82;;;;;;;8.03;45.09;102202.53;5091291;28;20131;-66
2022/04/03 11:25:43;;;;;;;2.58;0.70;;;;;;;7.87;45.30;102204.25;5091521;28;20385;-66
2022/04/03 11:28:12;;;;;;;2.13;0.68;;;;;;;7.69;44.65;102194.56;5095141;28;20422;-66
2022/04/03 11:30:40;;;;;;;2.65;0.90;;;;;;;7.48;45.64;102200.63;5095021;28;20098;-66
2022/04/03 11:33:11;;;;;;;3.78;1.20;;;;;;;7.28;47.82;102201.41;5094666;28;20048;-66
2022/04/03 11:35:40;;;;;;;2.17;1.15;;;;;;;7.03;49.32;102212.59;5095217;28;20509;-66